Página principal
METAR-TAF:

METAR-TAF

Aeroportos :

Kalaleh, Irão

latitude: 37-22-60N, longitude: 55-27-07E, altura: 130 m

Observação actual do tempo

O boletim foi feito há 52 minutos, às 03:00 UTC
Vento calmo
Temperatura 19°C
Humidade 73%
Pressão 1013 hPa
Visibilidade 10 km ou mais
sem nuvens abaixo de 1500 metros e sem cumulonimbus

METAR: OINE 230300Z 00000KT CAVOK 19/14 Q1013

Hora: 08:22 (03:52 UTC)


TAF: em falta

Observações e previsões do tempo de mais de 4000 aeroportos (mensagens METAR e TAF).

As estações disponíveis são os pontos amarelos e vermelhos sobre o mapa.

Mova o rato sobre o mapa para ver o nome da estação.

Depois clique no ponto para visualizar as observações e previsões meteorológicas.

Para alterar o mapa : clique nos botões verdes com uma cruz preta para aumentar o zoom; no botão verde com uma pitada de zoom; ou nas setas verdes para mapas adjacentes.


METAR-TAF: